Terminal Aerodrome Forecast
Issued by NWS

Home | Current Version | Previous Version | Text Only | Print | Product List | Glossary On
Versions: 1 2 3 4 5 6 7 8 9 10 11 12 13 14 15 16 17 18 19 20 21 22 23 24 25 26 27 28 29 30 31 32 33 34 35 36 37 38 39 40
449
FTUS42 KCAE 080233 AAA
TAFOGB
TAF AMD
KOGB 080233Z 0803/0824 VRB03KT P6SM OVC015
     FM080800 VRB03KT 4SM BR OVC007
     FM081500 30010KT P6SM BKN035
     FM081800 31008KT P6SM SCT040=

USA.gov is the U.S. government's official web portal to all federal, state and local government web resources and services.